sensor_id;sensor_type;location;lat;lon;timestamp;P1;durP1;ratioP1;P2;durP2;ratioP2
30571;SDS011;17348;50.948;10.696;2023-08-17T00:02:09;2.75;;;1.02;;
30571;SDS011;17348;50.948;10.696;2023-08-17T00:05:11;2.95;;;1.00;;
30571;SDS011;17348;50.948;10.696;2023-08-17T00:08:15;2.78;;;1.30;;
30571;SDS011;17348;50.948;10.696;2023-08-17T00:11:18;2.55;;;1.30;;
30571;SDS011;17348;50.948;10.696;2023-08-17T00:14:20;3.00;;;1.17;;
30571;SDS011;17348;50.948;10.696;2023-08-17T00:17:22;3.75;;;1.50;;
30571;SDS011;17348;50.948;10.696;2023-08-17T00:20:25;3.83;;;1.25;;
30571;SDS011;17348;50.948;10.696;2023-08-17T00:23:28;2.78;;;1.42;;
30571;SDS011;17348;50.948;10.696;2023-08-17T00:26:31;5.63;;;1.58;;
30571;SDS011;17348;50.948;10.696;2023-08-17T00:29:33;7.35;;;2.20;;
30571;SDS011;17348;50.948;10.696;2023-08-17T00:32:36;7.53;;;1.50;;
30571;SDS011;17348;50.948;10.696;2023-08-17T00:35:41;7.03;;;1.90;;
30571;SDS011;17348;50.948;10.696;2023-08-17T00:38:47;4.93;;;1.30;;
30571;SDS011;17348;50.948;10.696;2023-08-17T00:41:49;3.67;;;1.45;;
30571;SDS011;17348;50.948;10.696;2023-08-17T00:44:51;5.68;;;1.40;;
30571;SDS011;17348;50.948;10.696;2023-08-17T00:47:54;8.07;;;1.40;;
30571;SDS011;17348;50.948;10.696;2023-08-17T00:50:58;5.78;;;1.40;;
30571;SDS011;17348;50.948;10.696;2023-08-17T00:54:03;4.38;;;1.85;;
30571;SDS011;17348;50.948;10.696;2023-08-17T00:57:07;6.20;;;1.90;;
30571;SDS011;17348;50.948;10.696;2023-08-17T01:00:11;5.35;;;1.77;;
30571;SDS011;17348;50.948;10.696;2023-08-17T01:03:14;7.18;;;2.10;;
30571;SDS011;17348;50.948;10.696;2023-08-17T01:06:18;4.55;;;2.00;;
30571;SDS011;17348;50.948;10.696;2023-08-17T01:09:22;3.28;;;1.40;;
30571;SDS011;17348;50.948;10.696;2023-08-17T01:12:24;5.75;;;1.88;;
30571;SDS011;17348;50.948;10.696;2023-08-17T01:15:32;6.70;;;2.63;;
30571;SDS011;17348;50.948;10.696;2023-08-17T01:18:38;4.15;;;2.08;;
30571;SDS011;17348;50.948;10.696;2023-08-17T01:21:42;6.60;;;2.15;;
30571;SDS011;17348;50.948;10.696;2023-08-17T01:24:54;4.80;;;2.15;;
30571;SDS011;17348;50.948;10.696;2023-08-17T01:27:57;6.00;;;1.85;;
30571;SDS011;17348;50.948;10.696;2023-08-17T01:31:02;10.90;;;2.25;;
30571;SDS011;17348;50.948;10.696;2023-08-17T01:34:10;3.60;;;1.67;;
30571;SDS011;17348;50.948;10.696;2023-08-17T01:37:20;5.53;;;1.70;;
30571;SDS011;17348;50.948;10.696;2023-08-17T01:40:24;3.45;;;1.20;;
30571;SDS011;17348;50.948;10.696;2023-08-17T01:43:29;2.13;;;1.60;;
30571;SDS011;17348;50.948;10.696;2023-08-17T01:46:33;3.40;;;1.70;;
30571;SDS011;17348;50.948;10.696;2023-08-17T01:49:36;7.13;;;1.73;;
30571;SDS011;17348;50.948;10.696;2023-08-17T01:52:38;7.22;;;2.00;;
30571;SDS011;17348;50.948;10.696;2023-08-17T01:55:42;5.47;;;1.65;;
30571;SDS011;17348;50.948;10.696;2023-08-17T01:58:44;6.25;;;1.67;;
30571;SDS011;17348;50.948;10.696;2023-08-17T02:01:47;6.50;;;1.95;;
30571;SDS011;17348;50.948;10.696;2023-08-17T02:04:49;4.07;;;2.72;;
30571;SDS011;17348;50.948;10.696;2023-08-17T02:07:51;7.70;;;2.95;;
30571;SDS011;17348;50.948;10.696;2023-08-17T02:10:55;4.70;;;2.95;;
30571;SDS011;17348;50.948;10.696;2023-08-17T02:13:57;6.78;;;2.88;;
30571;SDS011;17348;50.948;10.696;2023-08-17T02:17:00;4.05;;;2.83;;
30571;SDS011;17348;50.948;10.696;2023-08-17T02:20:02;5.28;;;2.67;;
30571;SDS011;17348;50.948;10.696;2023-08-17T02:23:05;6.60;;;2.60;;
30571;SDS011;17348;50.948;10.696;2023-08-17T02:26:09;3.88;;;2.65;;
30571;SDS011;17348;50.948;10.696;2023-08-17T02:29:11;5.30;;;2.38;;
30571;SDS011;17348;50.948;10.696;2023-08-17T02:32:14;8.55;;;3.15;;
30571;SDS011;17348;50.948;10.696;2023-08-17T02:35:16;7.03;;;2.60;;
30571;SDS011;17348;50.948;10.696;2023-08-17T02:38:18;4.38;;;2.60;;
30571;SDS011;17348;50.948;10.696;2023-08-17T02:41:22;6.40;;;2.45;;
30571;SDS011;17348;50.948;10.696;2023-08-17T02:44:24;6.45;;;2.55;;
30571;SDS011;17348;50.948;10.696;2023-08-17T02:47:28;4.57;;;2.72;;
30571;SDS011;17348;50.948;10.696;2023-08-17T02:50:31;6.05;;;2.88;;
30571;SDS011;17348;50.948;10.696;2023-08-17T02:53:33;8.35;;;3.55;;
30571;SDS011;17348;50.948;10.696;2023-08-17T02:56:37;12.18;;;3.45;;
30571;SDS011;17348;50.948;10.696;2023-08-17T02:59:39;7.78;;;3.33;;
30571;SDS011;17348;50.948;10.696;2023-08-17T03:02:41;5.82;;;3.22;;
30571;SDS011;17348;50.948;10.696;2023-08-17T03:05:44;8.65;;;2.83;;
30571;SDS011;17348;50.948;10.696;2023-08-17T03:08:46;6.15;;;2.70;;
30571;SDS011;17348;50.948;10.696;2023-08-17T03:11:50;5.80;;;3.03;;
30571;SDS011;17348;50.948;10.696;2023-08-17T03:14:52;9.95;;;3.38;;
30571;SDS011;17348;50.948;10.696;2023-08-17T03:17:55;3.70;;;2.60;;
30571;SDS011;17348;50.948;10.696;2023-08-17T03:20:57;7.97;;;2.80;;
30571;SDS011;17348;50.948;10.696;2023-08-17T03:23:59;4.72;;;2.20;;
30571;SDS011;17348;50.948;10.696;2023-08-17T03:27:03;4.93;;;2.90;;
30571;SDS011;17348;50.948;10.696;2023-08-17T03:30:06;4.00;;;2.60;;
30571;SDS011;17348;50.948;10.696;2023-08-17T03:33:09;4.40;;;2.45;;
30571;SDS011;17348;50.948;10.696;2023-08-17T03:36:11;7.65;;;4.07;;
30571;SDS011;17348;50.948;10.696;2023-08-17T03:39:13;4.85;;;2.47;;
30571;SDS011;17348;50.948;10.696;2023-08-17T03:42:17;9.02;;;2.88;;
30571;SDS011;17348;50.948;10.696;2023-08-17T03:45:19;4.63;;;2.47;;
30571;SDS011;17348;50.948;10.696;2023-08-17T03:48:22;4.93;;;2.40;;
30571;SDS011;17348;50.948;10.696;2023-08-17T03:51:24;6.18;;;2.38;;
30571;SDS011;17348;50.948;10.696;2023-08-17T03:54:26;6.13;;;2.33;;
30571;SDS011;17348;50.948;10.696;2023-08-17T03:57:30;4.35;;;2.30;;
30571;SDS011;17348;50.948;10.696;2023-08-17T04:00:32;4.72;;;2.47;;
30571;SDS011;17348;50.948;10.696;2023-08-17T04:03:34;3.35;;;2.28;;
30571;SDS011;17348;50.948;10.696;2023-08-17T04:06:37;4.88;;;1.95;;
30571;SDS011;17348;50.948;10.696;2023-08-17T04:09:43;3.92;;;2.30;;
30571;SDS011;17348;50.948;10.696;2023-08-17T04:12:47;8.00;;;2.03;;
30571;SDS011;17348;50.948;10.696;2023-08-17T04:15:49;5.57;;;2.45;;
30571;SDS011;17348;50.948;10.696;2023-08-17T04:18:51;6.65;;;2.40;;
30571;SDS011;17348;50.948;10.696;2023-08-17T04:21:53;4.18;;;2.15;;
30571;SDS011;17348;50.948;10.696;2023-08-17T04:24:56;5.03;;;1.90;;
30571;SDS011;17348;50.948;10.696;2023-08-17T04:28:00;4.68;;;1.95;;
30571;SDS011;17348;50.948;10.696;2023-08-17T04:31:02;5.30;;;1.83;;
30571;SDS011;17348;50.948;10.696;2023-08-17T04:34:05;3.25;;;2.30;;
30571;SDS011;17348;50.948;10.696;2023-08-17T04:37:07;3.40;;;2.13;;
30571;SDS011;17348;50.948;10.696;2023-08-17T04:40:09;2.85;;;2.13;;
30571;SDS011;17348;50.948;10.696;2023-08-17T04:43:14;3.15;;;2.05;;
30571;SDS011;17348;50.948;10.696;2023-08-17T04:46:16;5.00;;;2.38;;
30571;SDS011;17348;50.948;10.696;2023-08-17T04:49:18;4.78;;;2.33;;
30571;SDS011;17348;50.948;10.696;2023-08-17T04:52:21;7.28;;;2.90;;
30571;SDS011;17348;50.948;10.696;2023-08-17T04:55:23;4.28;;;2.53;;
30571;SDS011;17348;50.948;10.696;2023-08-17T04:58:28;7.20;;;3.00;;
30571;SDS011;17348;50.948;10.696;2023-08-17T05:01:31;4.47;;;2.97;;
30571;SDS011;17348;50.948;10.696;2023-08-17T05:04:34;4.25;;;2.92;;
30571;SDS011;17348;50.948;10.696;2023-08-17T05:07:37;4.15;;;3.08;;
30571;SDS011;17348;50.948;10.696;2023-08-17T05:10:39;6.32;;;3.30;;
30571;SDS011;17348;50.948;10.696;2023-08-17T05:13:42;4.75;;;2.65;;
30571;SDS011;17348;50.948;10.696;2023-08-17T05:16:45;10.27;;;2.78;;
30571;SDS011;17348;50.948;10.696;2023-08-17T05:19:47;7.35;;;2.97;;
30571;SDS011;17348;50.948;10.696;2023-08-17T05:22:50;4.93;;;2.97;;
30571;SDS011;17348;50.948;10.696;2023-08-17T05:25:52;5.60;;;3.30;;
30571;SDS011;17348;50.948;10.696;2023-08-17T05:28:56;7.68;;;3.42;;
30571;SDS011;17348;50.948;10.696;2023-08-17T05:31:58;5.22;;;3.28;;
30571;SDS011;17348;50.948;10.696;2023-08-17T05:35:00;4.97;;;3.22;;
30571;SDS011;17348;50.948;10.696;2023-08-17T05:38:03;6.22;;;4.20;;
30571;SDS011;17348;50.948;10.696;2023-08-17T05:41:05;11.55;;;4.55;;
30571;SDS011;17348;50.948;10.696;2023-08-17T05:44:09;7.75;;;4.00;;
30571;SDS011;17348;50.948;10.696;2023-08-17T05:47:12;8.18;;;4.53;;
30571;SDS011;17348;50.948;10.696;2023-08-17T05:50:16;8.25;;;4.70;;
30571;SDS011;17348;50.948;10.696;2023-08-17T05:53:18;7.15;;;4.97;;
30571;SDS011;17348;50.948;10.696;2023-08-17T05:56:20;9.50;;;4.80;;
30571;SDS011;17348;50.948;10.696;2023-08-17T05:59:24;13.55;;;4.95;;
30571;SDS011;17348;50.948;10.696;2023-08-17T06:02:27;10.57;;;4.68;;
30571;SDS011;17348;50.948;10.696;2023-08-17T06:05:29;6.75;;;4.75;;
30571;SDS011;17348;50.948;10.696;2023-08-17T06:08:32;11.52;;;4.88;;
30571;SDS011;17348;50.948;10.696;2023-08-17T06:15:33;8.15;;;4.90;;
30571;SDS011;17348;50.948;10.696;2023-08-17T06:18:36;9.85;;;4.70;;
30571;SDS011;17348;50.948;10.696;2023-08-17T06:21:38;7.10;;;5.10;;
30571;SDS011;17348;50.948;10.696;2023-08-17T06:24:40;6.00;;;4.80;;
30571;SDS011;17348;50.948;10.696;2023-08-17T06:27:43;5.80;;;4.00;;
30571;SDS011;17348;50.948;10.696;2023-08-17T06:30:46;9.80;;;5.38;;
30571;SDS011;17348;50.948;10.696;2023-08-17T06:33:52;15.30;;;6.75;;
30571;SDS011;17348;50.948;10.696;2023-08-17T06:36:58;8.15;;;5.68;;
30571;SDS011;17348;50.948;10.696;2023-08-17T06:40:01;8.75;;;6.07;;
30571;SDS011;17348;50.948;10.696;2023-08-17T06:43:05;12.30;;;5.97;;
30571;SDS011;17348;50.948;10.696;2023-08-17T06:46:08;11.00;;;6.28;;
30571;SDS011;17348;50.948;10.696;2023-08-17T06:49:11;12.80;;;7.55;;
30571;SDS011;17348;50.948;10.696;2023-08-17T06:52:16;13.18;;;7.65;;
30571;SDS011;17348;50.948;10.696;2023-08-17T06:55:20;15.05;;;10.02;;
30571;SDS011;17348;50.948;10.696;2023-08-17T06:58:22;13.60;;;8.93;;
30571;SDS011;17348;50.948;10.696;2023-08-17T07:01:26;13.07;;;7.47;;
30571;SDS011;17348;50.948;10.696;2023-08-17T07:04:28;10.95;;;7.45;;
30571;SDS011;17348;50.948;10.696;2023-08-17T07:07:30;9.73;;;5.68;;
30571;SDS011;17348;50.948;10.696;2023-08-17T07:10:36;9.57;;;5.85;;
30571;SDS011;17348;50.948;10.696;2023-08-17T07:13:38;7.70;;;5.30;;
30571;SDS011;17348;50.948;10.696;2023-08-17T07:16:42;10.45;;;5.40;;
30571;SDS011;17348;50.948;10.696;2023-08-17T07:19:44;8.95;;;5.25;;
30571;SDS011;17348;50.948;10.696;2023-08-17T07:22:47;7.13;;;4.63;;
30571;SDS011;17348;50.948;10.696;2023-08-17T07:25:49;8.63;;;5.50;;
30571;SDS011;17348;50.948;10.696;2023-08-17T07:28:51;7.65;;;5.65;;
30571;SDS011;17348;50.948;10.696;2023-08-17T07:31:57;12.43;;;5.43;;
30571;SDS011;17348;50.948;10.696;2023-08-17T07:35:02;7.80;;;5.13;;
30571;SDS011;17348;50.948;10.696;2023-08-17T07:38:05;9.70;;;5.68;;
30571;SDS011;17348;50.948;10.696;2023-08-17T07:41:07;7.05;;;5.60;;
30571;SDS011;17348;50.948;10.696;2023-08-17T07:44:12;10.60;;;5.40;;
30571;SDS011;17348;50.948;10.696;2023-08-17T07:47:15;7.63;;;4.85;;
30571;SDS011;17348;50.948;10.696;2023-08-17T07:50:18;11.40;;;5.55;;
30571;SDS011;17348;50.948;10.696;2023-08-17T07:53:21;7.65;;;5.55;;
30571;SDS011;17348;50.948;10.696;2023-08-17T07:56:25;11.05;;;5.75;;
30571;SDS011;17348;50.948;10.696;2023-08-17T07:59:27;8.68;;;5.03;;
30571;SDS011;17348;50.948;10.696;2023-08-17T08:02:31;8.30;;;5.53;;
30571;SDS011;17348;50.948;10.696;2023-08-17T08:05:33;9.15;;;6.00;;
30571;SDS011;17348;50.948;10.696;2023-08-17T08:08:36;14.95;;;6.65;;
30571;SDS011;17348;50.948;10.696;2023-08-17T08:11:50;9.57;;;5.78;;
30571;SDS011;17348;50.948;10.696;2023-08-17T08:14:53;12.75;;;6.50;;
30571;SDS011;17348;50.948;10.696;2023-08-17T08:17:59;8.40;;;5.95;;
30571;SDS011;17348;50.948;10.696;2023-08-17T08:21:03;10.68;;;6.63;;
30571;SDS011;17348;50.948;10.696;2023-08-17T08:43:55;11.73;;;7.22;;
30571;SDS011;17348;50.948;10.696;2023-08-17T08:46:57;10.77;;;6.18;;
30571;SDS011;17348;50.948;10.696;2023-08-17T08:50:00;20.48;;;7.28;;
30571;SDS011;17348;50.948;10.696;2023-08-17T08:53:07;13.63;;;6.57;;
30571;SDS011;17348;50.948;10.696;2023-08-17T08:56:24;10.10;;;5.95;;
30571;SDS011;17348;50.948;10.696;2023-08-17T08:59:39;11.02;;;6.38;;
30571;SDS011;17348;50.948;10.696;2023-08-17T09:03:03;10.60;;;6.22;;
30571;SDS011;17348;50.948;10.696;2023-08-17T09:06:17;12.38;;;7.32;;
30571;SDS011;17348;50.948;10.696;2023-08-17T09:09:31;19.05;;;6.63;;
30571;SDS011;17348;50.948;10.696;2023-08-17T09:12:50;14.27;;;7.25;;
30571;SDS011;17348;50.948;10.696;2023-08-17T09:19:32;15.50;;;7.30;;
30571;SDS011;17348;50.948;10.696;2023-08-17T09:22:38;14.73;;;6.53;;
30571;SDS011;17348;50.948;10.696;2023-08-17T09:25:52;12.13;;;7.35;;
30571;SDS011;17348;50.948;10.696;2023-08-17T09:29:17;13.85;;;7.15;;
30571;SDS011;17348;50.948;10.696;2023-08-17T09:32:30;15.15;;;7.70;;
30571;SDS011;17348;50.948;10.696;2023-08-17T09:35:38;14.23;;;7.40;;
30571;SDS011;17348;50.948;10.696;2023-08-17T09:39:36;11.85;;;8.23;;
30571;SDS011;17348;50.948;10.696;2023-08-17T09:42:48;18.35;;;8.50;;
30571;SDS011;17348;50.948;10.696;2023-08-17T09:46:00;13.43;;;8.20;;
30571;SDS011;17348;50.948;10.696;2023-08-17T09:49:05;16.67;;;8.90;;
30571;SDS011;17348;50.948;10.696;2023-08-17T09:52:10;14.35;;;8.88;;
30571;SDS011;17348;50.948;10.696;2023-08-17T09:55:12;13.35;;;7.90;;
30571;SDS011;17348;50.948;10.696;2023-08-17T09:58:16;16.48;;;8.82;;
30571;SDS011;17348;50.948;10.696;2023-08-17T10:01:18;12.85;;;7.50;;
30571;SDS011;17348;50.948;10.696;2023-08-17T10:04:23;18.13;;;8.48;;
30571;SDS011;17348;50.948;10.696;2023-08-17T10:07:28;15.00;;;8.38;;
30571;SDS011;17348;50.948;10.696;2023-08-17T10:10:32;12.43;;;8.40;;
30571;SDS011;17348;50.948;10.696;2023-08-17T10:13:39;12.32;;;8.25;;
30571;SDS011;17348;50.948;10.696;2023-08-17T10:16:49;17.10;;;8.88;;
30571;SDS011;17348;50.948;10.696;2023-08-17T10:20:01;16.98;;;8.52;;
30571;SDS011;17348;50.948;10.696;2023-08-17T10:23:08;12.18;;;8.18;;
30571;SDS011;17348;50.948;10.696;2023-08-17T10:26:16;15.07;;;7.43;;
30571;SDS011;17348;50.948;10.696;2023-08-17T10:29:19;13.93;;;8.43;;
30571;SDS011;17348;50.948;10.696;2023-08-17T10:32:24;15.75;;;8.93;;
30571;SDS011;17348;50.948;10.696;2023-08-17T10:35:29;14.25;;;9.00;;
30571;SDS011;17348;50.948;10.696;2023-08-17T10:38:32;13.20;;;9.02;;
30571;SDS011;17348;50.948;10.696;2023-08-17T10:41:45;12.98;;;8.70;;
30571;SDS011;17348;50.948;10.696;2023-08-17T10:44:48;12.50;;;7.95;;
30571;SDS011;17348;50.948;10.696;2023-08-17T10:47:52;15.23;;;9.93;;
30571;SDS011;17348;50.948;10.696;2023-08-17T10:51:03;16.92;;;9.80;;
30571;SDS011;17348;50.948;10.696;2023-08-17T10:54:08;14.80;;;9.43;;
30571;SDS011;17348;50.948;10.696;2023-08-17T10:57:32;13.93;;;9.82;;
30571;SDS011;17348;50.948;10.696;2023-08-17T11:00:37;20.67;;;9.68;;
30571;SDS011;17348;50.948;10.696;2023-08-17T11:03:41;17.88;;;9.05;;
30571;SDS011;17348;50.948;10.696;2023-08-17T11:06:45;18.20;;;8.13;;
30571;SDS011;17348;50.948;10.696;2023-08-17T11:10:00;17.17;;;8.57;;
30571;SDS011;17348;50.948;10.696;2023-08-17T11:13:13;15.93;;;8.10;;
30571;SDS011;17348;50.948;10.696;2023-08-17T11:16:16;14.07;;;8.38;;
30571;SDS011;17348;50.948;10.696;2023-08-17T11:19:20;11.30;;;8.32;;
30571;SDS011;17348;50.948;10.696;2023-08-17T11:22:24;16.98;;;8.00;;
30571;SDS011;17348;50.948;10.696;2023-08-17T11:25:27;14.57;;;7.93;;
30571;SDS011;17348;50.948;10.696;2023-08-17T11:28:30;11.60;;;8.18;;
30571;SDS011;17348;50.948;10.696;2023-08-17T11:31:39;14.10;;;8.80;;
30571;SDS011;17348;50.948;10.696;2023-08-17T11:34:41;12.18;;;8.18;;
30571;SDS011;17348;50.948;10.696;2023-08-17T11:37:50;16.90;;;8.95;;
30571;SDS011;17348;50.948;10.696;2023-08-17T11:40:52;13.70;;;8.65;;
30571;SDS011;17348;50.948;10.696;2023-08-17T11:43:55;14.30;;;8.50;;
30571;SDS011;17348;50.948;10.696;2023-08-17T11:46:59;11.95;;;8.57;;
30571;SDS011;17348;50.948;10.696;2023-08-17T11:50:01;15.30;;;8.30;;
30571;SDS011;17348;50.948;10.696;2023-08-17T11:53:06;13.65;;;8.77;;
30571;SDS011;17348;50.948;10.696;2023-08-17T11:56:12;16.38;;;8.27;;
30571;SDS011;17348;50.948;10.696;2023-08-17T11:59:16;11.68;;;7.70;;
30571;SDS011;17348;50.948;10.696;2023-08-17T12:02:21;14.98;;;7.40;;
30571;SDS011;17348;50.948;10.696;2023-08-17T12:05:24;11.88;;;8.50;;
30571;SDS011;17348;50.948;10.696;2023-08-17T12:08:41;13.15;;;7.88;;
30571;SDS011;17348;50.948;10.696;2023-08-17T12:11:45;12.95;;;7.68;;
30571;SDS011;17348;50.948;10.696;2023-08-17T12:14:49;20.30;;;8.90;;
30571;SDS011;17348;50.948;10.696;2023-08-17T12:17:51;13.93;;;8.32;;
30571;SDS011;17348;50.948;10.696;2023-08-17T12:20:54;10.88;;;7.75;;
30571;SDS011;17348;50.948;10.696;2023-08-17T12:23:58;9.93;;;6.82;;
30571;SDS011;17348;50.948;10.696;2023-08-17T12:27:01;18.88;;;8.02;;
30571;SDS011;17348;50.948;10.696;2023-08-17T12:30:05;9.90;;;7.20;;
30571;SDS011;17348;50.948;10.696;2023-08-17T12:33:14;9.25;;;7.00;;
30571;SDS011;17348;50.948;10.696;2023-08-17T12:36:17;10.82;;;7.70;;
30571;SDS011;17348;50.948;10.696;2023-08-17T12:39:22;15.13;;;6.97;;
30571;SDS011;17348;50.948;10.696;2023-08-17T12:42:24;13.45;;;7.85;;
30571;SDS011;17348;50.948;10.696;2023-08-17T12:45:27;13.55;;;8.10;;
30571;SDS011;17348;50.948;10.696;2023-08-17T12:48:30;15.48;;;7.60;;
30571;SDS011;17348;50.948;10.696;2023-08-17T12:51:33;14.15;;;7.85;;
30571;SDS011;17348;50.948;10.696;2023-08-17T12:54:36;23.98;;;8.27;;
30571;SDS011;17348;50.948;10.696;2023-08-17T12:57:39;13.82;;;8.07;;
30571;SDS011;17348;50.948;10.696;2023-08-17T13:00:41;15.88;;;7.50;;
30571;SDS011;17348;50.948;10.696;2023-08-17T13:03:44;16.58;;;9.13;;
30571;SDS011;17348;50.948;10.696;2023-08-17T13:06:46;9.30;;;6.97;;
30571;SDS011;17348;50.948;10.696;2023-08-17T13:09:52;10.27;;;7.75;;
30571;SDS011;17348;50.948;10.696;2023-08-17T13:12:57;14.18;;;7.65;;
30571;SDS011;17348;50.948;10.696;2023-08-17T13:16:00;14.18;;;8.43;;
30571;SDS011;17348;50.948;10.696;2023-08-17T13:19:02;12.63;;;7.55;;
30571;SDS011;17348;50.948;10.696;2023-08-17T13:22:05;13.05;;;8.45;;
30571;SDS011;17348;50.948;10.696;2023-08-17T13:25:08;13.48;;;9.13;;
30571;SDS011;17348;50.948;10.696;2023-08-17T13:28:11;13.68;;;8.60;;
30571;SDS011;17348;50.948;10.696;2023-08-17T13:31:13;12.93;;;7.72;;
30571;SDS011;17348;50.948;10.696;2023-08-17T13:34:16;13.10;;;8.30;;
30571;SDS011;17348;50.948;10.696;2023-08-17T13:37:18;14.70;;;8.60;;
30571;SDS011;17348;50.948;10.696;2023-08-17T13:40:22;13.50;;;8.48;;
30571;SDS011;17348;50.948;10.696;2023-08-17T13:43:24;13.15;;;7.55;;
30571;SDS011;17348;50.948;10.696;2023-08-17T13:46:27;11.73;;;7.75;;
30571;SDS011;17348;50.948;10.696;2023-08-17T13:49:29;12.00;;;8.18;;
30571;SDS011;17348;50.948;10.696;2023-08-17T13:52:32;12.80;;;7.80;;
30571;SDS011;17348;50.948;10.696;2023-08-17T13:55:36;14.38;;;7.47;;
30571;SDS011;17348;50.948;10.696;2023-08-17T13:58:38;14.35;;;8.13;;
30571;SDS011;17348;50.948;10.696;2023-08-17T14:01:41;14.40;;;8.52;;
30571;SDS011;17348;50.948;10.696;2023-08-17T14:04:43;13.88;;;8.60;;
30571;SDS011;17348;50.948;10.696;2023-08-17T14:07:46;14.95;;;8.68;;
30571;SDS011;17348;50.948;10.696;2023-08-17T14:10:50;11.68;;;7.30;;
30571;SDS011;17348;50.948;10.696;2023-08-17T14:13:53;12.05;;;7.97;;
30571;SDS011;17348;50.948;10.696;2023-08-17T14:16:55;9.77;;;7.35;;
30571;SDS011;17348;50.948;10.696;2023-08-17T14:19:57;21.08;;;8.85;;
30571;SDS011;17348;50.948;10.696;2023-08-17T14:23:01;10.52;;;7.57;;
30571;SDS011;17348;50.948;10.696;2023-08-17T14:26:05;12.15;;;7.60;;
30571;SDS011;17348;50.948;10.696;2023-08-17T14:29:07;10.43;;;7.22;;
30571;SDS011;17348;50.948;10.696;2023-08-17T14:32:10;15.73;;;8.02;;
30571;SDS011;17348;50.948;10.696;2023-08-17T14:35:12;12.98;;;7.00;;
30571;SDS011;17348;50.948;10.696;2023-08-17T14:38:15;12.02;;;7.63;;
30571;SDS011;17348;50.948;10.696;2023-08-17T14:41:20;16.80;;;8.20;;
30571;SDS011;17348;50.948;10.696;2023-08-17T14:44:22;12.55;;;7.95;;
30571;SDS011;17348;50.948;10.696;2023-08-17T14:47:25;16.48;;;6.40;;
30571;SDS011;17348;50.948;10.696;2023-08-17T14:50:27;10.98;;;6.82;;
30571;SDS011;17348;50.948;10.696;2023-08-17T14:53:30;9.18;;;6.70;;
30571;SDS011;17348;50.948;10.696;2023-08-17T14:56:33;9.38;;;7.10;;
30571;SDS011;17348;50.948;10.696;2023-08-17T14:59:36;18.63;;;8.75;;
30571;SDS011;17348;50.948;10.696;2023-08-17T15:02:38;19.33;;;9.70;;
30571;SDS011;17348;50.948;10.696;2023-08-17T15:05:40;10.48;;;7.80;;
30571;SDS011;17348;50.948;10.696;2023-08-17T15:08:43;9.88;;;7.57;;
30571;SDS011;17348;50.948;10.696;2023-08-17T15:11:46;13.65;;;8.18;;
30571;SDS011;17348;50.948;10.696;2023-08-17T15:14:51;12.25;;;8.38;;
30571;SDS011;17348;50.948;10.696;2023-08-17T15:17:53;16.50;;;8.23;;
30571;SDS011;17348;50.948;10.696;2023-08-17T15:20:55;11.23;;;6.93;;
30571;SDS011;17348;50.948;10.696;2023-08-17T15:23:58;11.88;;;7.93;;
30571;SDS011;17348;50.948;10.696;2023-08-17T15:27:03;11.13;;;7.65;;
30571;SDS011;17348;50.948;10.696;2023-08-17T15:30:06;10.45;;;6.53;;
30571;SDS011;17348;50.948;10.696;2023-08-17T15:33:09;10.40;;;7.18;;
30571;SDS011;17348;50.948;10.696;2023-08-17T15:36:11;12.32;;;6.65;;
30571;SDS011;17348;50.948;10.696;2023-08-17T15:39:18;12.13;;;7.68;;
30571;SDS011;17348;50.948;10.696;2023-08-17T15:42:22;12.80;;;7.55;;
30571;SDS011;17348;50.948;10.696;2023-08-17T15:45:24;10.32;;;7.55;;
30571;SDS011;17348;50.948;10.696;2023-08-17T15:48:27;10.68;;;7.80;;
30571;SDS011;17348;50.948;10.696;2023-08-17T15:51:29;9.50;;;6.93;;
30571;SDS011;17348;50.948;10.696;2023-08-17T15:54:33;15.18;;;8.23;;
30571;SDS011;17348;50.948;10.696;2023-08-17T15:57:38;11.02;;;8.02;;
30571;SDS011;17348;50.948;10.696;2023-08-17T16:00:40;12.57;;;6.95;;
30571;SDS011;17348;50.948;10.696;2023-08-17T16:03:46;9.82;;;6.82;;
30571;SDS011;17348;50.948;10.696;2023-08-17T16:06:49;11.35;;;6.72;;
30571;SDS011;17348;50.948;10.696;2023-08-17T16:09:51;11.70;;;6.65;;
30571;SDS011;17348;50.948;10.696;2023-08-17T16:12:55;14.13;;;7.15;;
30571;SDS011;17348;50.948;10.696;2023-08-17T16:15:57;11.77;;;7.10;;
30571;SDS011;17348;50.948;10.696;2023-08-17T16:18:59;13.40;;;7.90;;
30571;SDS011;17348;50.948;10.696;2023-08-17T16:22:02;9.98;;;6.53;;
30571;SDS011;17348;50.948;10.696;2023-08-17T16:25:05;10.30;;;6.05;;
30571;SDS011;17348;50.948;10.696;2023-08-17T16:28:09;10.57;;;6.32;;
30571;SDS011;17348;50.948;10.696;2023-08-17T16:31:12;8.35;;;6.35;;
30571;SDS011;17348;50.948;10.696;2023-08-17T16:34:14;9.98;;;6.28;;
30571;SDS011;17348;50.948;10.696;2023-08-17T16:37:16;8.20;;;5.90;;
30571;SDS011;17348;50.948;10.696;2023-08-17T16:40:19;10.10;;;5.63;;
30571;SDS011;17348;50.948;10.696;2023-08-17T16:43:22;9.60;;;5.97;;
30571;SDS011;17348;50.948;10.696;2023-08-17T16:46:25;12.88;;;6.13;;
30571;SDS011;17348;50.948;10.696;2023-08-17T16:49:27;12.02;;;6.53;;
30571;SDS011;17348;50.948;10.696;2023-08-17T16:52:29;10.85;;;6.18;;
30571;SDS011;17348;50.948;10.696;2023-08-17T16:55:32;14.45;;;6.72;;
30571;SDS011;17348;50.948;10.696;2023-08-17T16:58:36;9.52;;;6.95;;
30571;SDS011;17348;50.948;10.696;2023-08-17T17:01:38;17.42;;;7.18;;
30571;SDS011;17348;50.948;10.696;2023-08-17T17:04:41;19.25;;;7.78;;
30571;SDS011;17348;50.948;10.696;2023-08-17T17:07:44;11.00;;;7.40;;
30571;SDS011;17348;50.948;10.696;2023-08-17T17:10:46;12.35;;;7.40;;
30571;SDS011;17348;50.948;10.696;2023-08-17T17:13:52;10.13;;;6.75;;
30571;SDS011;17348;50.948;10.696;2023-08-17T17:16:55;10.00;;;6.07;;
30571;SDS011;17348;50.948;10.696;2023-08-17T17:19:57;10.57;;;7.15;;
30571;SDS011;17348;50.948;10.696;2023-08-17T17:22:59;10.38;;;6.18;;
30571;SDS011;17348;50.948;10.696;2023-08-17T17:26:03;9.32;;;6.93;;
30571;SDS011;17348;50.948;10.696;2023-08-17T17:29:09;9.50;;;6.10;;
30571;SDS011;17348;50.948;10.696;2023-08-17T17:32:12;14.38;;;6.85;;
30571;SDS011;17348;50.948;10.696;2023-08-17T17:35:14;8.25;;;6.13;;
30571;SDS011;17348;50.948;10.696;2023-08-17T17:38:16;7.47;;;5.80;;
30571;SDS011;17348;50.948;10.696;2023-08-17T17:41:19;8.98;;;6.50;;
30571;SDS011;17348;50.948;10.696;2023-08-17T17:44:23;14.43;;;7.10;;
30571;SDS011;17348;50.948;10.696;2023-08-17T17:47:25;10.15;;;7.57;;
30571;SDS011;17348;50.948;10.696;2023-08-17T17:50:27;12.45;;;7.03;;
30571;SDS011;17348;50.948;10.696;2023-08-17T17:53:30;11.93;;;7.10;;
30571;SDS011;17348;50.948;10.696;2023-08-17T17:56:36;14.68;;;8.10;;
30571;SDS011;17348;50.948;10.696;2023-08-17T17:59:40;11.65;;;7.53;;
30571;SDS011;17348;50.948;10.696;2023-08-17T18:02:45;11.50;;;7.90;;
30571;SDS011;17348;50.948;10.696;2023-08-17T18:05:47;15.35;;;7.50;;
30571;SDS011;17348;50.948;10.696;2023-08-17T18:08:50;11.75;;;7.55;;
30571;SDS011;17348;50.948;10.696;2023-08-17T18:11:52;10.43;;;7.68;;
30571;SDS011;17348;50.948;10.696;2023-08-17T18:14:56;16.35;;;8.23;;
30571;SDS011;17348;50.948;10.696;2023-08-17T18:17:58;22.17;;;9.45;;
30571;SDS011;17348;50.948;10.696;2023-08-17T18:21:00;12.32;;;7.85;;
30571;SDS011;17348;50.948;10.696;2023-08-17T18:24:03;12.73;;;8.27;;
30571;SDS011;17348;50.948;10.696;2023-08-17T18:27:06;12.32;;;8.18;;
30571;SDS011;17348;50.948;10.696;2023-08-17T18:30:10;12.98;;;7.95;;
30571;SDS011;17348;50.948;10.696;2023-08-17T18:33:13;13.38;;;9.05;;